sensor_id;sensor_type;location;lat;lon;timestamp;temperature;humidity
5476;DHT22;2760;50.000;9.194;2023-03-01T00:01:49;-0.60;99.90
5476;DHT22;2760;50.000;9.194;2023-03-01T00:04:17;-0.60;99.90
5476;DHT22;2760;50.000;9.194;2023-03-01T00:06:44;-0.60;99.90
5476;DHT22;2760;50.000;9.194;2023-03-01T00:09:13;-0.60;99.90
5476;DHT22;2760;50.000;9.194;2023-03-01T00:11:41;-0.60;99.90
5476;DHT22;2760;50.000;9.194;2023-03-01T00:14:12;-0.50;99.90
5476;DHT22;2760;50.000;9.194;2023-03-01T00:16:40;-0.40;99.90
5476;DHT22;2760;50.000;9.194;2023-03-01T00:19:11;-0.50;99.90
5476;DHT22;2760;50.000;9.194;2023-03-01T00:21:42;-0.70;99.90
5476;DHT22;2760;50.000;9.194;2023-03-01T00:26:37;-0.50;99.90
5476;DHT22;2760;50.000;9.194;2023-03-01T00:29:04;-0.30;99.90
5476;DHT22;2760;50.000;9.194;2023-03-01T00:31:37;-0.40;99.90
5476;DHT22;2760;50.000;9.194;2023-03-01T00:34:05;-0.40;99.90
5476;DHT22;2760;50.000;9.194;2023-03-01T00:36:35;-0.40;99.90
5476;DHT22;2760;50.000;9.194;2023-03-01T00:39:05;1.60;99.90
5476;DHT22;2760;50.000;9.194;2023-03-01T00:41:35;1.90;99.90
5476;DHT22;2760;50.000;9.194;2023-03-01T00:44:02;-0.50;99.90
5476;DHT22;2760;50.000;9.194;2023-03-01T00:46:30;-0.50;99.90
5476;DHT22;2760;50.000;9.194;2023-03-01T00:48:57;-0.50;99.90
5476;DHT22;2760;50.000;9.194;2023-03-01T00:51:28;-0.40;99.90
5476;DHT22;2760;50.000;9.194;2023-03-01T00:53:58;-0.40;99.90
5476;DHT22;2760;50.000;9.194;2023-03-01T00:56:27;-0.20;99.90
5476;DHT22;2760;50.000;9.194;2023-03-01T00:58:55;-0.40;99.90
5476;DHT22;2760;50.000;9.194;2023-03-01T01:01:24;-0.60;99.90
5476;DHT22;2760;50.000;9.194;2023-03-01T01:03:56;-0.50;99.90
5476;DHT22;2760;50.000;9.194;2023-03-01T01:06:27;-0.50;99.90
5476;DHT22;2760;50.000;9.194;2023-03-01T01:08:55;-0.60;99.90
5476;DHT22;2760;50.000;9.194;2023-03-01T01:11:24;-0.60;99.90
5476;DHT22;2760;50.000;9.194;2023-03-01T01:13:54;-0.60;99.90
5476;DHT22;2760;50.000;9.194;2023-03-01T01:16:23;-0.50;99.90
5476;DHT22;2760;50.000;9.194;2023-03-01T01:18:51;-0.50;99.90
5476;DHT22;2760;50.000;9.194;2023-03-01T01:21:20;-0.70;99.90
5476;DHT22;2760;50.000;9.194;2023-03-01T01:23:50;-0.60;99.90
5476;DHT22;2760;50.000;9.194;2023-03-01T01:26:19;-0.50;99.90
5476;DHT22;2760;50.000;9.194;2023-03-01T01:28:48;1.20;99.90
5476;DHT22;2760;50.000;9.194;2023-03-01T01:31:19;-0.40;99.90
5476;DHT22;2760;50.000;9.194;2023-03-01T01:33:47;-0.50;99.90
5476;DHT22;2760;50.000;9.194;2023-03-01T01:36:14;2.10;99.90
5476;DHT22;2760;50.000;9.194;2023-03-01T01:38:42;-0.50;99.90
5476;DHT22;2760;50.000;9.194;2023-03-01T01:41:10;-0.50;99.90
5476;DHT22;2760;50.000;9.194;2023-03-01T01:43:41;-0.50;99.90
5476;DHT22;2760;50.000;9.194;2023-03-01T01:46:19;-0.40;99.90
5476;DHT22;2760;50.000;9.194;2023-03-01T01:48:52;-0.40;99.90
5476;DHT22;2760;50.000;9.194;2023-03-01T01:51:23;-0.50;99.90
5476;DHT22;2760;50.000;9.194;2023-03-01T01:53:55;1.90;99.90
5476;DHT22;2760;50.000;9.194;2023-03-01T01:56:23;-0.50;99.90
5476;DHT22;2760;50.000;9.194;2023-03-01T02:01:20;-0.40;99.90
5476;DHT22;2760;50.000;9.194;2023-03-01T02:03:49;-0.20;99.90
5476;DHT22;2760;50.000;9.194;2023-03-01T02:06:21;-0.20;99.90
5476;DHT22;2760;50.000;9.194;2023-03-01T02:08:51;-0.30;99.90
5476;DHT22;2760;50.000;9.194;2023-03-01T02:11:22;-0.20;99.90
5476;DHT22;2760;50.000;9.194;2023-03-01T02:13:49;-0.20;99.90
5476;DHT22;2760;50.000;9.194;2023-03-01T02:16:17;-0.20;99.90
5476;DHT22;2760;50.000;9.194;2023-03-01T02:18:54;2.00;99.90
5476;DHT22;2760;50.000;9.194;2023-03-01T02:21:36;-0.30;99.90
5476;DHT22;2760;50.000;9.194;2023-03-01T02:24:13;-0.30;99.90
5476;DHT22;2760;50.000;9.194;2023-03-01T02:26:50;-0.20;99.90
5476;DHT22;2760;50.000;9.194;2023-03-01T02:29:22;-0.20;99.90
5476;DHT22;2760;50.000;9.194;2023-03-01T02:31:52;-0.20;99.90
5476;DHT22;2760;50.000;9.194;2023-03-01T02:34:23;0.50;99.90
5476;DHT22;2760;50.000;9.194;2023-03-01T02:36:56;-0.40;99.90
5476;DHT22;2760;50.000;9.194;2023-03-01T02:39:26;1.60;99.90
5476;DHT22;2760;50.000;9.194;2023-03-01T02:41:56;-0.40;99.90
5476;DHT22;2760;50.000;9.194;2023-03-01T02:44:26;0.10;99.90
5476;DHT22;2760;50.000;9.194;2023-03-01T02:46:55;-0.20;99.90
5476;DHT22;2760;50.000;9.194;2023-03-01T02:49:26;-0.20;99.90
5476;DHT22;2760;50.000;9.194;2023-03-01T02:52:20;-0.20;99.90
5476;DHT22;2760;50.000;9.194;2023-03-01T02:54:51;-0.20;99.90
5476;DHT22;2760;50.000;9.194;2023-03-01T02:57:22;-0.10;99.90
5476;DHT22;2760;50.000;9.194;2023-03-01T02:59:53;-0.20;99.90
5476;DHT22;2760;50.000;9.194;2023-03-01T03:02:22;2.00;99.90
5476;DHT22;2760;50.000;9.194;2023-03-01T03:05:08;-0.20;99.90
5476;DHT22;2760;50.000;9.194;2023-03-01T03:07:39;-0.20;99.90
5476;DHT22;2760;50.000;9.194;2023-03-01T03:10:10;-0.10;99.90
5476;DHT22;2760;50.000;9.194;2023-03-01T03:12:38;-0.20;99.90
5476;DHT22;2760;50.000;9.194;2023-03-01T03:15:10;-0.20;99.90
5476;DHT22;2760;50.000;9.194;2023-03-01T03:17:40;-0.20;99.90
5476;DHT22;2760;50.000;9.194;2023-03-01T03:20:09;-0.30;99.90
5476;DHT22;2760;50.000;9.194;2023-03-01T03:22:38;-0.20;99.90
5476;DHT22;2760;50.000;9.194;2023-03-01T03:27:36;-0.10;99.90
5476;DHT22;2760;50.000;9.194;2023-03-01T03:30:04;-0.10;99.90
5476;DHT22;2760;50.000;9.194;2023-03-01T03:32:36;-0.10;99.90
5476;DHT22;2760;50.000;9.194;2023-03-01T03:35:05;1.80;99.90
5476;DHT22;2760;50.000;9.194;2023-03-01T03:37:36;-0.20;99.90
5476;DHT22;2760;50.000;9.194;2023-03-01T03:40:20;1.50;99.90
5476;DHT22;2760;50.000;9.194;2023-03-01T03:42:48;-0.10;99.90
5476;DHT22;2760;50.000;9.194;2023-03-01T03:45:17;-0.10;99.90
5476;DHT22;2760;50.000;9.194;2023-03-01T03:47:49;-0.10;99.90
5476;DHT22;2760;50.000;9.194;2023-03-01T03:50:17;0.00;99.90
5476;DHT22;2760;50.000;9.194;2023-03-01T03:52:44;-0.10;99.90
5476;DHT22;2760;50.000;9.194;2023-03-01T03:55:12;-0.10;99.90
5476;DHT22;2760;50.000;9.194;2023-03-01T03:57:40;0.00;99.90
5476;DHT22;2760;50.000;9.194;2023-03-01T04:00:10;1.50;99.90
5476;DHT22;2760;50.000;9.194;2023-03-01T04:02:39;-0.10;99.90
5476;DHT22;2760;50.000;9.194;2023-03-01T04:05:12;-0.10;99.90
5476;DHT22;2760;50.000;9.194;2023-03-01T04:07:40;-0.10;99.90
5476;DHT22;2760;50.000;9.194;2023-03-01T04:10:11;-0.10;99.90
5476;DHT22;2760;50.000;9.194;2023-03-01T04:12:38;-0.20;99.90
5476;DHT22;2760;50.000;9.194;2023-03-01T04:15:07;-0.10;99.90
5476;DHT22;2760;50.000;9.194;2023-03-01T04:17:39;0.00;99.90
5476;DHT22;2760;50.000;9.194;2023-03-01T04:20:11;-0.10;99.90
5476;DHT22;2760;50.000;9.194;2023-03-01T04:22:39;-0.10;99.90
5476;DHT22;2760;50.000;9.194;2023-03-01T04:25:07;-0.10;99.90
5476;DHT22;2760;50.000;9.194;2023-03-01T04:27:40;-0.10;99.90
5476;DHT22;2760;50.000;9.194;2023-03-01T04:30:09;-0.10;99.90
5476;DHT22;2760;50.000;9.194;2023-03-01T04:32:36;-0.10;99.90
5476;DHT22;2760;50.000;9.194;2023-03-01T04:35:04;-0.10;99.90
5476;DHT22;2760;50.000;9.194;2023-03-01T04:37:32;0.00;99.90
5476;DHT22;2760;50.000;9.194;2023-03-01T04:40:00;0.00;99.90
5476;DHT22;2760;50.000;9.194;2023-03-01T04:42:32;-0.10;99.90
5476;DHT22;2760;50.000;9.194;2023-03-01T04:44:59;2.00;99.90
5476;DHT22;2760;50.000;9.194;2023-03-01T04:47:26;1.50;99.90
5476;DHT22;2760;50.000;9.194;2023-03-01T04:49:53;0.00;99.90
5476;DHT22;2760;50.000;9.194;2023-03-01T04:52:20;0.00;99.90
5476;DHT22;2760;50.000;9.194;2023-03-01T04:54:49;1.00;99.90
5476;DHT22;2760;50.000;9.194;2023-03-01T04:57:17;-0.20;99.90
5476;DHT22;2760;50.000;9.194;2023-03-01T04:59:45;0.10;99.90
5476;DHT22;2760;50.000;9.194;2023-03-01T05:02:12;0.00;99.90
5476;DHT22;2760;50.000;9.194;2023-03-01T05:04:40;0.00;99.90
5476;DHT22;2760;50.000;9.194;2023-03-01T05:07:07;-0.10;99.90
5476;DHT22;2760;50.000;9.194;2023-03-01T05:09:35;0.00;99.90
5476;DHT22;2760;50.000;9.194;2023-03-01T05:12:05;1.40;99.90
5476;DHT22;2760;50.000;9.194;2023-03-01T05:14:33;0.00;99.90
5476;DHT22;2760;50.000;9.194;2023-03-01T05:17:00;0.00;99.90
5476;DHT22;2760;50.000;9.194;2023-03-01T05:19:29;0.00;99.90
5476;DHT22;2760;50.000;9.194;2023-03-01T05:21:57;0.00;99.90
5476;DHT22;2760;50.000;9.194;2023-03-01T05:24:32;0.00;99.90
5476;DHT22;2760;50.000;9.194;2023-03-01T05:27:01;-0.10;99.90
5476;DHT22;2760;50.000;9.194;2023-03-01T05:29:31;0.20;99.90
5476;DHT22;2760;50.000;9.194;2023-03-01T05:32:03;0.00;99.90
5476;DHT22;2760;50.000;9.194;2023-03-01T05:34:32;0.10;99.90
5476;DHT22;2760;50.000;9.194;2023-03-01T05:37:01;1.90;99.90
5476;DHT22;2760;50.000;9.194;2023-03-01T05:39:30;-0.10;99.90
5476;DHT22;2760;50.000;9.194;2023-03-01T05:41:59;0.00;99.90
5476;DHT22;2760;50.000;9.194;2023-03-01T05:44:30;-0.10;99.90
5476;DHT22;2760;50.000;9.194;2023-03-01T05:46:57;-0.10;99.90
5476;DHT22;2760;50.000;9.194;2023-03-01T05:49:25;0.00;99.90
5476;DHT22;2760;50.000;9.194;2023-03-01T05:51:53;0.10;99.90
5476;DHT22;2760;50.000;9.194;2023-03-01T05:54:27;0.10;99.90
5476;DHT22;2760;50.000;9.194;2023-03-01T05:59:22;0.00;99.90
5476;DHT22;2760;50.000;9.194;2023-03-01T06:01:50;1.20;99.90
5476;DHT22;2760;50.000;9.194;2023-03-01T06:06:44;0.10;99.90
5476;DHT22;2760;50.000;9.194;2023-03-01T06:09:11;0.20;99.90
5476;DHT22;2760;50.000;9.194;2023-03-01T06:11:38;0.20;99.90
5476;DHT22;2760;50.000;9.194;2023-03-01T06:14:07;0.20;99.90
5476;DHT22;2760;50.000;9.194;2023-03-01T06:16:36;0.20;99.90
5476;DHT22;2760;50.000;9.194;2023-03-01T06:19:04;0.30;99.90
5476;DHT22;2760;50.000;9.194;2023-03-01T06:21:31;0.30;99.90
5476;DHT22;2760;50.000;9.194;2023-03-01T06:23:58;0.40;99.90
5476;DHT22;2760;50.000;9.194;2023-03-01T06:26:25;0.40;99.90
5476;DHT22;2760;50.000;9.194;2023-03-01T06:28:52;0.50;99.90
5476;DHT22;2760;50.000;9.194;2023-03-01T06:31:19;0.70;99.90
5476;DHT22;2760;50.000;9.194;2023-03-01T06:36:14;0.90;99.90
5476;DHT22;2760;50.000;9.194;2023-03-01T06:38:44;1.00;99.90
5476;DHT22;2760;50.000;9.194;2023-03-01T06:41:11;1.20;99.90
5476;DHT22;2760;50.000;9.194;2023-03-01T06:43:38;1.20;99.90
5476;DHT22;2760;50.000;9.194;2023-03-01T06:46:05;1.30;99.90
5476;DHT22;2760;50.000;9.194;2023-03-01T06:48:33;2.00;99.90
5476;DHT22;2760;50.000;9.194;2023-03-01T06:51:00;1.50;99.90
5476;DHT22;2760;50.000;9.194;2023-03-01T06:53:29;1.60;99.90
5476;DHT22;2760;50.000;9.194;2023-03-01T06:55:56;1.60;99.50
5476;DHT22;2760;50.000;9.194;2023-03-01T06:58:24;1.70;99.40
5476;DHT22;2760;50.000;9.194;2023-03-01T07:03:19;1.80;99.20
5476;DHT22;2760;50.000;9.194;2023-03-01T07:05:48;1.90;99.20
5476;DHT22;2760;50.000;9.194;2023-03-01T07:08:17;2.00;99.20
5476;DHT22;2760;50.000;9.194;2023-03-01T07:10:45;2.10;99.10
5476;DHT22;2760;50.000;9.194;2023-03-01T07:15:40;2.10;98.80
5476;DHT22;2760;50.000;9.194;2023-03-01T07:18:07;2.10;98.60
5476;DHT22;2760;50.000;9.194;2023-03-01T07:20:35;2.20;98.70
5476;DHT22;2760;50.000;9.194;2023-03-01T07:23:02;2.30;98.70
5476;DHT22;2760;50.000;9.194;2023-03-01T07:25:29;2.30;98.60
5476;DHT22;2760;50.000;9.194;2023-03-01T07:27:57;2.50;98.50
5476;DHT22;2760;50.000;9.194;2023-03-01T07:30:24;2.70;98.10
5476;DHT22;2760;50.000;9.194;2023-03-01T07:32:54;2.90;98.10
5476;DHT22;2760;50.000;9.194;2023-03-01T07:37:48;3.40;97.40
5476;DHT22;2760;50.000;9.194;2023-03-01T07:40:15;4.00;96.90
5476;DHT22;2760;50.000;9.194;2023-03-01T07:42:42;3.90;96.60
5476;DHT22;2760;50.000;9.194;2023-03-01T07:45:11;5.70;97.90
5476;DHT22;2760;50.000;9.194;2023-03-01T07:47:39;4.10;96.40
5476;DHT22;2760;50.000;9.194;2023-03-01T07:50:07;3.70;96.20
5476;DHT22;2760;50.000;9.194;2023-03-01T07:52:34;3.60;96.20
5476;DHT22;2760;50.000;9.194;2023-03-01T07:55:02;3.40;96.40
5476;DHT22;2760;50.000;9.194;2023-03-01T07:57:29;3.30;96.50
5476;DHT22;2760;50.000;9.194;2023-03-01T07:59:56;3.20;96.60
5476;DHT22;2760;50.000;9.194;2023-03-01T08:02:24;3.30;96.70
5476;DHT22;2760;50.000;9.194;2023-03-01T08:04:53;3.20;96.50
5476;DHT22;2760;50.000;9.194;2023-03-01T08:09:47;3.20;96.90
5476;DHT22;2760;50.000;9.194;2023-03-01T08:12:14;3.30;96.90
5476;DHT22;2760;50.000;9.194;2023-03-01T08:14:42;3.40;96.70
5476;DHT22;2760;50.000;9.194;2023-03-01T08:17:09;3.30;96.90
5476;DHT22;2760;50.000;9.194;2023-03-01T08:19:37;3.30;96.50
5476;DHT22;2760;50.000;9.194;2023-03-01T08:22:04;3.40;96.30
5476;DHT22;2760;50.000;9.194;2023-03-01T08:29:28;3.60;95.90
5476;DHT22;2760;50.000;9.194;2023-03-01T08:31:56;3.80;96.20
5476;DHT22;2760;50.000;9.194;2023-03-01T08:34:23;3.90;96.20
5476;DHT22;2760;50.000;9.194;2023-03-01T08:36:52;3.80;96.60
5476;DHT22;2760;50.000;9.194;2023-03-01T08:39:20;4.30;95.40
5476;DHT22;2760;50.000;9.194;2023-03-01T08:41:47;4.70;94.80
5476;DHT22;2760;50.000;9.194;2023-03-01T08:44:15;5.00;94.60
5476;DHT22;2760;50.000;9.194;2023-03-01T08:46:44;7.40;95.60
5476;DHT22;2760;50.000;9.194;2023-03-01T08:49:13;5.20;94.10
5476;DHT22;2760;50.000;9.194;2023-03-01T08:51:41;5.20;94.90
5476;DHT22;2760;50.000;9.194;2023-03-01T08:54:13;5.30;93.80
5476;DHT22;2760;50.000;9.194;2023-03-01T08:56:40;5.50;93.40
5476;DHT22;2760;50.000;9.194;2023-03-01T08:59:07;5.50;93.70
5476;DHT22;2760;50.000;9.194;2023-03-01T09:04:04;5.90;93.00
5476;DHT22;2760;50.000;9.194;2023-03-01T09:06:31;5.90;92.90
5476;DHT22;2760;50.000;9.194;2023-03-01T09:08:59;6.10;93.20
5476;DHT22;2760;50.000;9.194;2023-03-01T09:11:28;8.50;94.50
5476;DHT22;2760;50.000;9.194;2023-03-01T09:13:55;6.30;93.30
5476;DHT22;2760;50.000;9.194;2023-03-01T09:16:23;6.20;92.80
5476;DHT22;2760;50.000;9.194;2023-03-01T09:18:50;6.50;92.30
5476;DHT22;2760;50.000;9.194;2023-03-01T09:21:19;6.60;92.50
5476;DHT22;2760;50.000;9.194;2023-03-01T09:23:47;6.80;92.70
5476;DHT22;2760;50.000;9.194;2023-03-01T09:26:16;6.80;91.90
5476;DHT22;2760;50.000;9.194;2023-03-01T09:28:46;6.90;91.90
5476;DHT22;2760;50.000;9.194;2023-03-01T09:31:14;7.90;92.80
5476;DHT22;2760;50.000;9.194;2023-03-01T09:33:42;7.30;91.60
5476;DHT22;2760;50.000;9.194;2023-03-01T09:36:12;7.60;91.60
5476;DHT22;2760;50.000;9.194;2023-03-01T09:38:39;7.60;91.70
5476;DHT22;2760;50.000;9.194;2023-03-01T09:41:11;7.40;90.90
5476;DHT22;2760;50.000;9.194;2023-03-01T09:43:48;7.30;91.00
5476;DHT22;2760;50.000;9.194;2023-03-01T09:46:20;7.30;91.10
5476;DHT22;2760;50.000;9.194;2023-03-01T09:48:50;7.70;91.50
5476;DHT22;2760;50.000;9.194;2023-03-01T09:51:23;7.20;90.70
5476;DHT22;2760;50.000;9.194;2023-03-01T09:53:53;7.40;90.50
5476;DHT22;2760;50.000;9.194;2023-03-01T09:56:27;7.50;90.70
5476;DHT22;2760;50.000;9.194;2023-03-01T09:59:02;7.80;90.90
5476;DHT22;2760;50.000;9.194;2023-03-01T10:01:36;7.80;90.60
5476;DHT22;2760;50.000;9.194;2023-03-01T10:04:12;9.00;90.90
5476;DHT22;2760;50.000;9.194;2023-03-01T10:06:49;8.00;90.00
5476;DHT22;2760;50.000;9.194;2023-03-01T10:09:19;8.00;90.60
5476;DHT22;2760;50.000;9.194;2023-03-01T10:11:49;9.50;90.40
5476;DHT22;2760;50.000;9.194;2023-03-01T10:14:32;8.10;90.30
5476;DHT22;2760;50.000;9.194;2023-03-01T10:17:03;10.00;89.90
5476;DHT22;2760;50.000;9.194;2023-03-01T10:19:33;8.40;88.20
5476;DHT22;2760;50.000;9.194;2023-03-01T10:22:05;8.20;88.00
5476;DHT22;2760;50.000;9.194;2023-03-01T10:24:36;8.20;88.90
5476;DHT22;2760;50.000;9.194;2023-03-01T10:27:07;8.50;89.00
5476;DHT22;2760;50.000;9.194;2023-03-01T10:29:40;8.70;88.30
5476;DHT22;2760;50.000;9.194;2023-03-01T10:32:10;10.50;88.30
5476;DHT22;2760;50.000;9.194;2023-03-01T10:34:37;9.10;86.70
5476;DHT22;2760;50.000;9.194;2023-03-01T10:37:10;9.20;87.20
5476;DHT22;2760;50.000;9.194;2023-03-01T10:39:54;9.20;86.90
5476;DHT22;2760;50.000;9.194;2023-03-01T10:42:26;12.30;87.00
5476;DHT22;2760;50.000;9.194;2023-03-01T10:44:55;11.10;85.80
5476;DHT22;2760;50.000;9.194;2023-03-01T10:47:25;9.70;84.00
5476;DHT22;2760;50.000;9.194;2023-03-01T10:49:57;11.70;86.10
5476;DHT22;2760;50.000;9.194;2023-03-01T10:52:28;11.90;85.20
5476;DHT22;2760;50.000;9.194;2023-03-01T10:54:57;9.60;84.00
5476;DHT22;2760;50.000;9.194;2023-03-01T10:57:35;10.60;84.50
5476;DHT22;2760;50.000;9.194;2023-03-01T11:00:18;10.20;82.70
5476;DHT22;2760;50.000;9.194;2023-03-01T11:02:48;10.20;82.80
5476;DHT22;2760;50.000;9.194;2023-03-01T11:05:23;10.60;81.60
5476;DHT22;2760;50.000;9.194;2023-03-01T11:07:51;10.60;83.10
5476;DHT22;2760;50.000;9.194;2023-03-01T11:10:21;10.70;82.10
5476;DHT22;2760;50.000;9.194;2023-03-01T11:12:49;10.40;81.00
5476;DHT22;2760;50.000;9.194;2023-03-01T11:15:24;10.70;82.00
5476;DHT22;2760;50.000;9.194;2023-03-01T11:17:52;10.40;80.60
5476;DHT22;2760;50.000;9.194;2023-03-01T11:20:25;12.20;82.50
5476;DHT22;2760;50.000;9.194;2023-03-01T11:22:54;10.70;78.90
5476;DHT22;2760;50.000;9.194;2023-03-01T11:25:25;13.00;81.70
5476;DHT22;2760;50.000;9.194;2023-03-01T11:27:53;12.20;81.60
5476;DHT22;2760;50.000;9.194;2023-03-01T11:30:26;10.50;78.90
5476;DHT22;2760;50.000;9.194;2023-03-01T11:33:05;10.60;81.60
5476;DHT22;2760;50.000;9.194;2023-03-01T11:35:37;10.50;78.40
5476;DHT22;2760;50.000;9.194;2023-03-01T11:38:16;11.10;78.60
5476;DHT22;2760;50.000;9.194;2023-03-01T11:40:48;12.80;80.50
5476;DHT22;2760;50.000;9.194;2023-03-01T11:43:23;11.40;78.40
5476;DHT22;2760;50.000;9.194;2023-03-01T11:46:08;11.10;78.50
5476;DHT22;2760;50.000;9.194;2023-03-01T11:48:49;11.60;78.20
5476;DHT22;2760;50.000;9.194;2023-03-01T11:51:24;11.50;78.10
5476;DHT22;2760;50.000;9.194;2023-03-01T11:54:06;14.00;80.70
5476;DHT22;2760;50.000;9.194;2023-03-01T11:56:37;13.50;78.90
5476;DHT22;2760;50.000;9.194;2023-03-01T11:59:29;11.50;77.40
5476;DHT22;2760;50.000;9.194;2023-03-01T12:05:16;11.40;76.80
5476;DHT22;2760;50.000;9.194;2023-03-01T12:07:51;11.30;76.90
5476;DHT22;2760;50.000;9.194;2023-03-01T12:10:23;10.30;77.40
5476;DHT22;2760;50.000;9.194;2023-03-01T12:13:10;14.00;80.50
5476;DHT22;2760;50.000;9.194;2023-03-01T12:16:04;11.80;76.90
5476;DHT22;2760;50.000;9.194;2023-03-01T12:18:57;11.40;76.90
5476;DHT22;2760;50.000;9.194;2023-03-01T12:21:38;10.00;75.20
5476;DHT22;2760;50.000;9.194;2023-03-01T12:24:37;12.00;77.00
5476;DHT22;2760;50.000;9.194;2023-03-01T12:27:19;11.90;77.30
5476;DHT22;2760;50.000;9.194;2023-03-01T12:29:52;12.20;76.50
5476;DHT22;2760;50.000;9.194;2023-03-01T12:32:29;13.70;77.50
5476;DHT22;2760;50.000;9.194;2023-03-01T12:35:16;14.40;78.50
5476;DHT22;2760;50.000;9.194;2023-03-01T12:37:54;12.00;76.50
5476;DHT22;2760;50.000;9.194;2023-03-01T12:40:40;13.60;78.90
5476;DHT22;2760;50.000;9.194;2023-03-01T12:43:22;14.40;78.60
5476;DHT22;2760;50.000;9.194;2023-03-01T12:46:14;13.80;77.60
5476;DHT22;2760;50.000;9.194;2023-03-01T12:48:50;12.20;76.10
5476;DHT22;2760;50.000;9.194;2023-03-01T12:51:23;12.40;76.40
5476;DHT22;2760;50.000;9.194;2023-03-01T12:53:52;12.20;76.60
5476;DHT22;2760;50.000;9.194;2023-03-01T12:56:22;13.30;77.10
5476;DHT22;2760;50.000;9.194;2023-03-01T12:58:57;13.70;77.10
5476;DHT22;2760;50.000;9.194;2023-03-01T13:01:36;13.70;76.80
5476;DHT22;2760;50.000;9.194;2023-03-01T13:04:35;12.70;75.60
5476;DHT22;2760;50.000;9.194;2023-03-01T13:07:14;12.80;75.60
5476;DHT22;2760;50.000;9.194;2023-03-01T13:09:49;13.60;77.00
5476;DHT22;2760;50.000;9.194;2023-03-01T13:12:50;12.70;76.50
5476;DHT22;2760;50.000;9.194;2023-03-01T13:15:32;12.70;76.00
5476;DHT22;2760;50.000;9.194;2023-03-01T13:18:00;13.30;78.10
5476;DHT22;2760;50.000;9.194;2023-03-01T13:20:31;13.30;78.10
5476;DHT22;2760;50.000;9.194;2023-03-01T13:23:04;13.50;79.50
5476;DHT22;2760;50.000;9.194;2023-03-01T13:25:33;13.00;77.60
5476;DHT22;2760;50.000;9.194;2023-03-01T13:28:37;13.10;76.90
5476;DHT22;2760;50.000;9.194;2023-03-01T13:31:07;12.00;76.40
5476;DHT22;2760;50.000;9.194;2023-03-01T13:33:42;13.50;77.10
5476;DHT22;2760;50.000;9.194;2023-03-01T13:36:11;14.20;78.10
5476;DHT22;2760;50.000;9.194;2023-03-01T13:39:01;12.20;75.30
5476;DHT22;2760;50.000;9.194;2023-03-01T13:41:49;12.40;77.00
5476;DHT22;2760;50.000;9.194;2023-03-01T13:44:30;11.50;76.80
5476;DHT22;2760;50.000;9.194;2023-03-01T13:46:59;12.20;78.50
5476;DHT22;2760;50.000;9.194;2023-03-01T13:49:28;13.10;76.20
5476;DHT22;2760;50.000;9.194;2023-03-01T13:51:57;12.70;75.00
5476;DHT22;2760;50.000;9.194;2023-03-01T13:54:29;14.90;76.40
5476;DHT22;2760;50.000;9.194;2023-03-01T13:56:58;12.40;74.10
5476;DHT22;2760;50.000;9.194;2023-03-01T13:59:26;12.90;75.70
5476;DHT22;2760;50.000;9.194;2023-03-01T14:01:56;13.00;75.50
5476;DHT22;2760;50.000;9.194;2023-03-01T14:04:26;12.70;75.00
5476;DHT22;2760;50.000;9.194;2023-03-01T14:07:09;12.60;75.00
5476;DHT22;2760;50.000;9.194;2023-03-01T14:09:40;12.60;75.50
5476;DHT22;2760;50.000;9.194;2023-03-01T14:12:28;14.30;77.40
5476;DHT22;2760;50.000;9.194;2023-03-01T14:15:02;12.50;74.30
5476;DHT22;2760;50.000;9.194;2023-03-01T14:17:59;12.70;75.30
5476;DHT22;2760;50.000;9.194;2023-03-01T14:20:30;12.40;75.80
5476;DHT22;2760;50.000;9.194;2023-03-01T14:23:01;12.30;75.60
5476;DHT22;2760;50.000;9.194;2023-03-01T14:25:31;12.20;76.00
5476;DHT22;2760;50.000;9.194;2023-03-01T14:28:03;12.10;75.90
5476;DHT22;2760;50.000;9.194;2023-03-01T14:30:34;12.50;76.30
5476;DHT22;2760;50.000;9.194;2023-03-01T14:33:04;12.50;74.80
5476;DHT22;2760;50.000;9.194;2023-03-01T14:35:34;12.30;76.00
5476;DHT22;2760;50.000;9.194;2023-03-01T14:38:01;12.00;75.60
5476;DHT22;2760;50.000;9.194;2023-03-01T14:40:32;12.00;76.50
5476;DHT22;2760;50.000;9.194;2023-03-01T14:43:02;11.70;77.20
5476;DHT22;2760;50.000;9.194;2023-03-01T14:45:35;11.50;76.90
5476;DHT22;2760;50.000;9.194;2023-03-01T14:48:04;13.70;80.10
5476;DHT22;2760;50.000;9.194;2023-03-01T14:50:34;11.50;80.80
5476;DHT22;2760;50.000;9.194;2023-03-01T14:53:03;11.40;81.90
5476;DHT22;2760;50.000;9.194;2023-03-01T14:55:35;11.50;82.50
5476;DHT22;2760;50.000;9.194;2023-03-01T14:58:04;11.10;82.90
5476;DHT22;2760;50.000;9.194;2023-03-01T15:00:32;11.00;83.70
5476;DHT22;2760;50.000;9.194;2023-03-01T15:03:06;11.10;83.60
5476;DHT22;2760;50.000;9.194;2023-03-01T15:05:35;11.50;83.80
5476;DHT22;2760;50.000;9.194;2023-03-01T15:08:03;10.80;84.00
5476;DHT22;2760;50.000;9.194;2023-03-01T15:10:34;10.70;84.60
5476;DHT22;2760;50.000;9.194;2023-03-01T15:13:11;10.80;83.90
5476;DHT22;2760;50.000;9.194;2023-03-01T15:15:40;10.50;84.10
5476;DHT22;2760;50.000;9.194;2023-03-01T15:18:17;9.90;84.90
5476;DHT22;2760;50.000;9.194;2023-03-01T15:20:44;10.20;84.70
5476;DHT22;2760;50.000;9.194;2023-03-01T15:23:20;11.50;86.80
5476;DHT22;2760;50.000;9.194;2023-03-01T15:25:49;12.20;87.20
5476;DHT22;2760;50.000;9.194;2023-03-01T15:28:23;10.10;85.00
5476;DHT22;2760;50.000;9.194;2023-03-01T15:30:54;10.00;85.90
5476;DHT22;2760;50.000;9.194;2023-03-01T15:33:33;9.90;87.40
5476;DHT22;2760;50.000;9.194;2023-03-01T15:36:02;9.70;87.50
5476;DHT22;2760;50.000;9.194;2023-03-01T15:38:32;9.70;88.00
5476;DHT22;2760;50.000;9.194;2023-03-01T15:41:02;9.50;87.40
5476;DHT22;2760;50.000;9.194;2023-03-01T15:43:42;8.30;87.10
5476;DHT22;2760;50.000;9.194;2023-03-01T15:46:21;9.40;88.50
5476;DHT22;2760;50.000;9.194;2023-03-01T15:48:53;9.20;88.40
5476;DHT22;2760;50.000;9.194;2023-03-01T15:51:31;10.20;88.90
5476;DHT22;2760;50.000;9.194;2023-03-01T15:54:03;8.90;89.30
5476;DHT22;2760;50.000;9.194;2023-03-01T15:56:33;8.90;89.10
5476;DHT22;2760;50.000;9.194;2023-03-01T15:59:01;8.70;90.10
5476;DHT22;2760;50.000;9.194;2023-03-01T16:01:29;8.70;90.10
5476;DHT22;2760;50.000;9.194;2023-03-01T16:03:56;8.40;90.00
5476;DHT22;2760;50.000;9.194;2023-03-01T16:06:24;8.60;90.40
5476;DHT22;2760;50.000;9.194;2023-03-01T16:08:51;8.50;90.40
5476;DHT22;2760;50.000;9.194;2023-03-01T16:11:19;8.40;90.50
5476;DHT22;2760;50.000;9.194;2023-03-01T16:13:48;8.30;90.80
5476;DHT22;2760;50.000;9.194;2023-03-01T16:16:16;8.20;91.00
5476;DHT22;2760;50.000;9.194;2023-03-01T16:18:44;8.10;90.90
5476;DHT22;2760;50.000;9.194;2023-03-01T16:21:18;8.00;91.10
5476;DHT22;2760;50.000;9.194;2023-03-01T16:23:46;9.30;91.80
5476;DHT22;2760;50.000;9.194;2023-03-01T16:26:13;7.90;91.30
5476;DHT22;2760;50.000;9.194;2023-03-01T16:28:40;7.90;91.50
5476;DHT22;2760;50.000;9.194;2023-03-01T16:31:09;7.80;91.60
5476;DHT22;2760;50.000;9.194;2023-03-01T16:33:37;7.80;91.60
5476;DHT22;2760;50.000;9.194;2023-03-01T16:36:07;7.60;91.80
5476;DHT22;2760;50.000;9.194;2023-03-01T16:38:34;7.60;91.90
5476;DHT22;2760;50.000;9.194;2023-03-01T16:41:02;7.40;91.90
5476;DHT22;2760;50.000;9.194;2023-03-01T16:43:29;7.40;92.10
5476;DHT22;2760;50.000;9.194;2023-03-01T16:45:56;7.40;92.10
5476;DHT22;2760;50.000;9.194;2023-03-01T16:48:26;7.40;92.10
5476;DHT22;2760;50.000;9.194;2023-03-01T16:50:58;8.70;92.90
5476;DHT22;2760;50.000;9.194;2023-03-01T16:53:25;7.20;92.40
5476;DHT22;2760;50.000;9.194;2023-03-01T16:55:54;7.50;92.60
5476;DHT22;2760;50.000;9.194;2023-03-01T16:58:21;7.00;92.30
5476;DHT22;2760;50.000;9.194;2023-03-01T17:03:19;6.90;92.60
5476;DHT22;2760;50.000;9.194;2023-03-01T17:05:48;6.90;92.90
5476;DHT22;2760;50.000;9.194;2023-03-01T17:08:15;6.90;92.80
5476;DHT22;2760;50.000;9.194;2023-03-01T17:10:43;6.90;93.00
5476;DHT22;2760;50.000;9.194;2023-03-01T17:13:11;8.30;94.00